Canby, Oregon
Current Conditions -  °F | °C
As of 12:53 AM on Wednesday 22 Oct 2014 (Local Time) from KUAO Reporting Station
Overcast Overcast  
Wind Chill: 58°   Ceiling: 4400
Heat Index: 58°   Visibility: 10mi
Dew Point: 49°   Wind: 10mph
Humidity: 72%   Direction: 160°SSE
Pressure: 29.82"   Gusts: NA
Location:  45.26°N, 122.69°W
Report Text: KUAO 220753Z AUTO 16009KT 10SM OVC044 14/09 A2982 RMK AO2 RAE18 SLP098 P0000 T01440094 401610111
Loading
Personal Weather Stations






























Interactive Weather Map
Tropical Storm Tracking
New forecast layout! Learn more

10-Day Weather Forecast

Advertisements
Track Severe Weather on mobile